sensor_id;sensor_type;location;lat;lon;timestamp;pressure;altitude;pressure_sealevel;temperature;humidity
49583;BME280;36329;48.816;44.624;2023-07-29T00:01:34;99865;;;23.4;79.1
49583;BME280;36329;48.816;44.624;2023-07-29T00:04:36;99835;;;23.5;77.6
49583;BME280;36329;48.816;44.624;2023-07-29T00:07:38;99808;;;23.7;77.2
49583;BME280;36329;48.816;44.624;2023-07-29T00:10:40;99815;;;23.7;76.8
49583;BME280;36329;48.816;44.624;2023-07-29T00:13:42;99810;;;23.7;76.4
49583;BME280;36329;48.816;44.624;2023-07-29T00:16:44;99801;;;23.8;76.4
49583;BME280;36329;48.816;44.624;2023-07-29T00:19:45;99822;;;23.8;75.6
49583;BME280;36329;48.816;44.624;2023-07-29T00:22:47;99816;;;23.6;77.8
49583;BME280;36329;48.816;44.624;2023-07-29T00:25:49;99803;;;23.8;75.9
49583;BME280;36329;48.816;44.624;2023-07-29T00:28:51;99818;;;23.8;75.7
49583;BME280;36329;48.816;44.624;2023-07-29T00:31:53;99842;;;23.7;75.2
49583;BME280;36329;48.816;44.624;2023-07-29T00:34:56;99851;;;23.2;76.8
49583;BME280;36329;48.816;44.624;2023-07-29T00:37:58;99845;;;23.2;77.5
49583;BME280;36329;48.816;44.624;2023-07-29T00:41:00;99853;;;23.4;76.6
49583;BME280;36329;48.816;44.624;2023-07-29T00:44:04;99878;;;23.2;76.1
49583;BME280;36329;48.816;44.624;2023-07-29T00:47:06;99888;;;23.2;76.6
49583;BME280;36329;48.816;44.624;2023-07-29T00:50:11;99896;;;23.1;75.4
49583;BME280;36329;48.816;44.624;2023-07-29T00:53:14;99900;;;22.9;75.7
49583;BME280;36329;48.816;44.624;2023-07-29T00:56:16;99905;;;22.9;76.3
49583;BME280;36329;48.816;44.624;2023-07-29T00:59:18;99904;;;22.8;75.6
49583;BME280;36329;48.816;44.624;2023-07-29T01:02:21;99906;;;22.5;76.3
49583;BME280;36329;48.816;44.624;2023-07-29T01:05:27;99899;;;22.4;75.4
49583;BME280;36329;48.816;44.624;2023-07-29T01:08:38;99893;;;22.5;75.1
49583;BME280;36329;48.816;44.624;2023-07-29T01:11:51;99900;;;22.4;76.5
49583;BME280;36329;48.816;44.624;2023-07-29T01:15:01;99892;;;22.5;75.2
49583;BME280;36329;48.816;44.624;2023-07-29T01:18:09;99891;;;22.3;75.4
49583;BME280;36329;48.816;44.624;2023-07-29T01:21:14;99880;;;22.3;76
49583;BME280;36329;48.816;44.624;2023-07-29T01:24:17;99862;;;22.4;74.4
49583;BME280;36329;48.816;44.624;2023-07-29T01:27:19;99853;;;22.7;73.9
49583;BME280;36329;48.816;44.624;2023-07-29T01:30:31;99862;;;22.8;71.7
49583;BME280;36329;48.816;44.624;2023-07-29T01:33:40;99881;;;22.4;73
49583;BME280;36329;48.816;44.624;2023-07-29T01:36:45;99897;;;22.4;74
49583;BME280;36329;48.816;44.624;2023-07-29T01:39:49;99903;;;22.5;72.4
49583;BME280;36329;48.816;44.624;2023-07-29T01:42:52;99920;;;22.7;72.5
49583;BME280;36329;48.816;44.624;2023-07-29T01:45:54;99928;;;22.6;71.1
49583;BME280;36329;48.816;44.624;2023-07-29T01:48:57;99936;;;22.1;73.5
49583;BME280;36329;48.816;44.624;2023-07-29T01:51:59;99932;;;22;74.5
49583;BME280;36329;48.816;44.624;2023-07-29T01:55:01;99929;;;22.3;73.7
49583;BME280;36329;48.816;44.624;2023-07-29T01:58:05;99926;;;22.6;72.8
49583;BME280;36329;48.816;44.624;2023-07-29T02:01:07;99926;;;22.3;74.6
49583;BME280;36329;48.816;44.624;2023-07-29T02:04:09;99922;;;22.3;75.8
49583;BME280;36329;48.816;44.624;2023-07-29T02:07:11;99912;;;22.1;76.8
49583;BME280;36329;48.816;44.624;2023-07-29T02:10:13;99908;;;22.2;76.5
49583;BME280;36329;48.816;44.624;2023-07-29T02:13:15;99908;;;22.5;75
49583;BME280;36329;48.816;44.624;2023-07-29T02:16:17;99905;;;22.4;74.5
49583;BME280;36329;48.816;44.624;2023-07-29T02:19:19;99902;;;22.2;75.2
49583;BME280;36329;48.816;44.624;2023-07-29T02:22:21;99904;;;22.1;74.9
49583;BME280;36329;48.816;44.624;2023-07-29T02:25:23;99913;;;22.2;75.6
49583;BME280;36329;48.816;44.624;2023-07-29T02:28:26;99919;;;22.1;76.6
49583;BME280;36329;48.816;44.624;2023-07-29T02:31:28;99916;;;22.2;76.1
49583;BME280;36329;48.816;44.624;2023-07-29T02:34:30;99918;;;22.3;75.5
49583;BME280;36329;48.816;44.624;2023-07-29T02:37:33;99932;;;22.1;76.4
49583;BME280;36329;48.816;44.624;2023-07-29T02:40:35;99935;;;22.1;76.6
49583;BME280;36329;48.816;44.624;2023-07-29T02:43:37;99941;;;22;77.9
49583;BME280;36329;48.816;44.624;2023-07-29T02:46:39;99936;;;22;77.8
49583;BME280;36329;48.816;44.624;2023-07-29T02:49:41;99933;;;21.5;80.3
49583;BME280;36329;48.816;44.624;2023-07-29T02:52:43;99934;;;21.5;80.2
49583;BME280;36329;48.816;44.624;2023-07-29T02:55:44;99931;;;21.4;81.2
49583;BME280;36329;48.816;44.624;2023-07-29T02:58:46;99933;;;21.3;81
49583;BME280;36329;48.816;44.624;2023-07-29T03:01:48;99930;;;21.3;81.5
49583;BME280;36329;48.816;44.624;2023-07-29T03:04:50;99917;;;21.2;81.7
49583;BME280;36329;48.816;44.624;2023-07-29T03:07:54;99905;;;21.1;82
49583;BME280;36329;48.816;44.624;2023-07-29T03:10:56;99905;;;21.1;82.1
49583;BME280;36329;48.816;44.624;2023-07-29T03:13:58;99899;;;21.1;82.2
49583;BME280;36329;48.816;44.624;2023-07-29T03:17:02;99895;;;21.3;81.9
49583;BME280;36329;48.816;44.624;2023-07-29T03:20:04;99899;;;21.2;82.2
49583;BME280;36329;48.816;44.624;2023-07-29T03:23:07;99899;;;21.2;82
49583;BME280;36329;48.816;44.624;2023-07-29T03:26:09;99918;;;21.3;82
49583;BME280;36329;48.816;44.624;2023-07-29T03:29:12;99910;;;21.3;82
49583;BME280;36329;48.816;44.624;2023-07-29T03:32:14;99911;;;21.1;83.7
49583;BME280;36329;48.816;44.624;2023-07-29T03:35:16;99909;;;21.2;83
49583;BME280;36329;48.816;44.624;2023-07-29T03:38:19;99908;;;21.2;83.9
49583;BME280;36329;48.816;44.624;2023-07-29T03:41:21;99906;;;21.3;83.5
49583;BME280;36329;48.816;44.624;2023-07-29T03:44:23;99898;;;21.4;81.8
49583;BME280;36329;48.816;44.624;2023-07-29T03:47:25;99898;;;21.9;79.4
49583;BME280;36329;48.816;44.624;2023-07-29T03:50:28;99884;;;21.4;81.1
49583;BME280;36329;48.816;44.624;2023-07-29T03:53:30;99885;;;21.9;79
49583;BME280;36329;48.816;44.624;2023-07-29T03:56:32;99893;;;21.6;80.2
49583;BME280;36329;48.816;44.624;2023-07-29T03:59:34;99893;;;21.7;79.4
49583;BME280;36329;48.816;44.624;2023-07-29T04:02:36;99892;;;21.8;78.4
49583;BME280;36329;48.816;44.624;2023-07-29T04:05:38;99892;;;22.1;77.9
49583;BME280;36329;48.816;44.624;2023-07-29T04:08:40;99880;;;22.2;77.4
49583;BME280;36329;48.816;44.624;2023-07-29T04:11:43;99888;;;22.2;77.2
49583;BME280;36329;48.816;44.624;2023-07-29T04:14:45;99889;;;22;77.9
49583;BME280;36329;48.816;44.624;2023-07-29T04:17:47;99881;;;22.2;78.2
49583;BME280;36329;48.816;44.624;2023-07-29T04:20:49;99889;;;22;78.6
49583;BME280;36329;48.816;44.624;2023-07-29T04:23:50;99893;;;22.4;76.9
49583;BME280;36329;48.816;44.624;2023-07-29T04:26:53;99880;;;22.4;76.9
49583;BME280;36329;48.816;44.624;2023-07-29T04:29:55;99888;;;22.6;75.7
49583;BME280;36329;48.816;44.624;2023-07-29T04:32:57;99887;;;22.2;77.1
49583;BME280;36329;48.816;44.624;2023-07-29T04:35:59;99880;;;22.1;78.8
49583;BME280;36329;48.816;44.624;2023-07-29T04:39:01;99881;;;22;79.5
49583;BME280;36329;48.816;44.624;2023-07-29T04:42:04;99879;;;22.2;79.6
49583;BME280;36329;48.816;44.624;2023-07-29T04:45:06;99887;;;22.3;78.5
49583;BME280;36329;48.816;44.624;2023-07-29T04:48:08;99882;;;22.6;77.9
49583;BME280;36329;48.816;44.624;2023-07-29T04:51:10;99888;;;22.8;76.9
49583;BME280;36329;48.816;44.624;2023-07-29T04:54:12;99884;;;22.4;78.2
49583;BME280;36329;48.816;44.624;2023-07-29T04:57:14;99879;;;22.5;78.2
49583;BME280;36329;48.816;44.624;2023-07-29T05:00:17;99890;;;22.6;78.3
49583;BME280;36329;48.816;44.624;2023-07-29T05:03:19;99887;;;22.6;77.2
49583;BME280;36329;48.816;44.624;2023-07-29T05:06:20;99879;;;22.5;77.6
49583;BME280;36329;48.816;44.624;2023-07-29T05:09:23;99867;;;22.6;77.7
49583;BME280;36329;48.816;44.624;2023-07-29T05:12:25;99873;;;22.8;77.3
49583;BME280;36329;48.816;44.624;2023-07-29T05:15:27;99864;;;22.9;77
49583;BME280;36329;48.816;44.624;2023-07-29T05:18:29;99864;;;23.2;76.4
49583;BME280;36329;48.816;44.624;2023-07-29T05:21:31;99862;;;23.3;74.9
49583;BME280;36329;48.816;44.624;2023-07-29T05:24:33;99863;;;23.4;75
49583;BME280;36329;48.816;44.624;2023-07-29T05:27:35;99861;;;23.5;74.1
49583;BME280;36329;48.816;44.624;2023-07-29T05:30:37;99861;;;23.5;74
49583;BME280;36329;48.816;44.624;2023-07-29T05:33:40;99859;;;23.3;74.5
49583;BME280;36329;48.816;44.624;2023-07-29T05:36:43;99866;;;23.8;73.2
49583;BME280;36329;48.816;44.624;2023-07-29T05:39:45;99867;;;23.7;72.5
49583;BME280;36329;48.816;44.624;2023-07-29T05:42:47;99888;;;23.7;72.7
49583;BME280;36329;48.816;44.624;2023-07-29T05:45:49;99874;;;23.9;72.2
49583;BME280;36329;48.816;44.624;2023-07-29T05:48:51;99863;;;23.7;72.9
49583;BME280;36329;48.816;44.624;2023-07-29T05:51:54;99866;;;23.8;72.2
49583;BME280;36329;48.816;44.624;2023-07-29T05:54:56;99856;;;23.9;72.3
49583;BME280;36329;48.816;44.624;2023-07-29T05:57:59;99855;;;24;71.6
49583;BME280;36329;48.816;44.624;2023-07-29T06:01:06;99859;;;23.9;71.8
49583;BME280;36329;48.816;44.624;2023-07-29T06:04:08;99850;;;23.6;73.4
49583;BME280;36329;48.816;44.624;2023-07-29T06:07:11;99841;;;23.4;74.4
49583;BME280;36329;48.816;44.624;2023-07-29T06:10:14;99853;;;23.4;74.7
49583;BME280;36329;48.816;44.624;2023-07-29T06:13:16;99843;;;23.8;72.2
49583;BME280;36329;48.816;44.624;2023-07-29T06:16:18;99846;;;23.5;74
49583;BME280;36329;48.816;44.624;2023-07-29T06:19:20;99853;;;23;76.6
49583;BME280;36329;48.816;44.624;2023-07-29T06:22:22;99846;;;23.2;75.6
49583;BME280;36329;48.816;44.624;2023-07-29T06:25:24;99858;;;23;76.9
49583;BME280;36329;48.816;44.624;2023-07-29T06:28:27;99849;;;22.8;78.7
49583;BME280;36329;48.816;44.624;2023-07-29T06:31:29;99852;;;22.9;78.4
49583;BME280;36329;48.816;44.624;2023-07-29T06:34:31;99847;;;23.2;77
49583;BME280;36329;48.816;44.624;2023-07-29T06:37:34;99839;;;23.1;77.8
49583;BME280;36329;48.816;44.624;2023-07-29T06:40:36;99842;;;23;77.7
49583;BME280;36329;48.816;44.624;2023-07-29T06:43:39;99848;;;23;78.3
49583;BME280;36329;48.816;44.624;2023-07-29T06:46:41;99849;;;23.1;78.7
49583;BME280;36329;48.816;44.624;2023-07-29T06:49:45;99844;;;23.3;77.4
49583;BME280;36329;48.816;44.624;2023-07-29T06:52:48;99841;;;23.1;79
49583;BME280;36329;48.816;44.624;2023-07-29T06:55:50;99843;;;22.6;81.5
49583;BME280;36329;48.816;44.624;2023-07-29T06:58:52;99848;;;22.9;81.4
49583;BME280;36329;48.816;44.624;2023-07-29T07:01:54;99834;;;23.5;79.4
49583;BME280;36329;48.816;44.624;2023-07-29T07:04:57;99825;;;24.2;73.6
49583;BME280;36329;48.816;44.624;2023-07-29T07:07:59;99825;;;24.4;72.2
49583;BME280;36329;48.816;44.624;2023-07-29T07:11:01;99812;;;24.7;69.4
49583;BME280;36329;48.816;44.624;2023-07-29T07:14:03;99810;;;25.3;66
49583;BME280;36329;48.816;44.624;2023-07-29T07:17:05;99808;;;24.9;67.6
49583;BME280;36329;48.816;44.624;2023-07-29T07:20:07;99803;;;25.6;66.1
49583;BME280;36329;48.816;44.624;2023-07-29T07:23:09;99801;;;25.5;66.5
49583;BME280;36329;48.816;44.624;2023-07-29T07:26:11;99799;;;25;69
49583;BME280;36329;48.816;44.624;2023-07-29T07:29:14;99799;;;25.5;65.8
49583;BME280;36329;48.816;44.624;2023-07-29T07:32:17;99792;;;25.8;64.1
49583;BME280;36329;48.816;44.624;2023-07-29T07:35:19;99784;;;26;63.1
49583;BME280;36329;48.816;44.624;2023-07-29T07:38:21;99782;;;25.5;64.4
49583;BME280;36329;48.816;44.624;2023-07-29T07:41:23;99778;;;25.5;63.3
49583;BME280;36329;48.816;44.624;2023-07-29T07:44:25;99769;;;25.5;64.5
49583;BME280;36329;48.816;44.624;2023-07-29T07:47:27;99776;;;24.9;67.5
49583;BME280;36329;48.816;44.624;2023-07-29T07:50:29;99793;;;24.1;75.7
49583;BME280;36329;48.816;44.624;2023-07-29T07:53:32;99788;;;23.6;82
49583;BME280;36329;48.816;44.624;2023-07-29T07:56:34;99787;;;22.9;93.1
49583;BME280;36329;48.816;44.624;2023-07-29T07:59:36;99786;;;22.9;96.1
49583;BME280;36329;48.816;44.624;2023-07-29T08:02:38;99786;;;22.7;98.7
49583;BME280;36329;48.816;44.624;2023-07-29T08:05:41;99782;;;22.9;98.5
49583;BME280;36329;48.816;44.624;2023-07-29T08:08:43;99800;;;22.8;100
49583;BME280;36329;48.816;44.624;2023-07-29T08:11:45;99799;;;22.4;100
49583;BME280;36329;48.816;44.624;2023-07-29T08:14:47;99800;;;22.6;100
49583;BME280;36329;48.816;44.624;2023-07-29T08:17:49;99797;;;22.5;100
49583;BME280;36329;48.816;44.624;2023-07-29T08:20:51;99791;;;23.7;95.7
49583;BME280;36329;48.816;44.624;2023-07-29T08:23:54;99787;;;24.7;88.1
49583;BME280;36329;48.816;44.624;2023-07-29T08:26:56;99792;;;24.4;87.4
49583;BME280;36329;48.816;44.624;2023-07-29T08:29:58;99783;;;23.8;90.7
49583;BME280;36329;48.816;44.624;2023-07-29T08:33:02;99790;;;23.6;91.1
49583;BME280;36329;48.816;44.624;2023-07-29T08:36:04;99779;;;23.6;87.2
49583;BME280;36329;48.816;44.624;2023-07-29T08:39:06;99783;;;23.4;88.4
49583;BME280;36329;48.816;44.624;2023-07-29T08:42:11;99788;;;23.1;89.5
49583;BME280;36329;48.816;44.624;2023-07-29T08:45:14;99778;;;23;91
49583;BME280;36329;48.816;44.624;2023-07-29T08:48:19;99788;;;23.3;91.4
49583;BME280;36329;48.816;44.624;2023-07-29T08:51:26;99786;;;23.4;92.1
49583;BME280;36329;48.816;44.624;2023-07-29T08:54:28;99771;;;23.7;89.6
49583;BME280;36329;48.816;44.624;2023-07-29T08:57:30;99768;;;25.1;81.1
49583;BME280;36329;48.816;44.624;2023-07-29T09:00:34;99770;;;25.8;74.6
49583;BME280;36329;48.816;44.624;2023-07-29T09:03:36;99768;;;24.7;80.2
49583;BME280;36329;48.816;44.624;2023-07-29T09:06:39;99777;;;24.6;82.8
49583;BME280;36329;48.816;44.624;2023-07-29T09:09:41;99786;;;24.3;84.5
49583;BME280;36329;48.816;44.624;2023-07-29T09:12:44;99784;;;24.3;84.8
49583;BME280;36329;48.816;44.624;2023-07-29T09:15:46;99767;;;23.6;98.8
49583;BME280;36329;48.816;44.624;2023-07-29T09:18:48;99746;;;23.1;100
49583;BME280;36329;48.816;44.624;2023-07-29T09:21:50;99759;;;22.8;100
49583;BME280;36329;48.816;44.624;2023-07-29T09:24:53;99764;;;23.1;100
49583;BME280;36329;48.816;44.624;2023-07-29T09:27:58;99766;;;23;100
49583;BME280;36329;48.816;44.624;2023-07-29T09:31:04;99760;;;23.1;100
49583;BME280;36329;48.816;44.624;2023-07-29T09:34:06;99770;;;23.8;99.2
49583;BME280;36329;48.816;44.624;2023-07-29T09:37:09;99760;;;25.1;93.8
49583;BME280;36329;48.816;44.624;2023-07-29T09:40:15;99764;;;25.5;96.3
49583;BME280;36329;48.816;44.624;2023-07-29T09:43:17;99754;;;25.9;83.3
49583;BME280;36329;48.816;44.624;2023-07-29T09:46:22;99751;;;26.4;79.8
49583;BME280;36329;48.816;44.624;2023-07-29T09:49:26;99750;;;26.9;78
49583;BME280;36329;48.816;44.624;2023-07-29T09:52:28;99744;;;27.1;76.3
49583;BME280;36329;48.816;44.624;2023-07-29T09:55:33;99738;;;27.2;74.3
49583;BME280;36329;48.816;44.624;2023-07-29T09:58:35;99745;;;26.8;74.6
49583;BME280;36329;48.816;44.624;2023-07-29T10:01:39;99738;;;26.9;73.2
49583;BME280;36329;48.816;44.624;2023-07-29T10:04:42;99738;;;27.1;76.9
49583;BME280;36329;48.816;44.624;2023-07-29T10:07:45;99741;;;26.9;74.6
49583;BME280;36329;48.816;44.624;2023-07-29T10:10:49;99745;;;26.2;75.3
49583;BME280;36329;48.816;44.624;2023-07-29T10:13:52;99739;;;25.9;75.5
49583;BME280;36329;48.816;44.624;2023-07-29T10:16:56;99744;;;25.8;76.6
49583;BME280;36329;48.816;44.624;2023-07-29T10:19:59;99745;;;25.7;74.6
49583;BME280;36329;48.816;44.624;2023-07-29T10:23:02;99747;;;25.7;73.4
49583;BME280;36329;48.816;44.624;2023-07-29T10:26:10;99754;;;25.6;77.6
49583;BME280;36329;48.816;44.624;2023-07-29T10:29:13;99761;;;25.3;74.9
49583;BME280;36329;48.816;44.624;2023-07-29T10:32:16;99754;;;25.1;77.9
49583;BME280;36329;48.816;44.624;2023-07-29T10:35:19;99762;;;25.2;77.4
49583;BME280;36329;48.816;44.624;2023-07-29T10:38:22;99765;;;25.7;76.1
49583;BME280;36329;48.816;44.624;2023-07-29T10:45:19;99766;;;25.8;71.5
49583;BME280;36329;48.816;44.624;2023-07-29T10:48:41;99767;;;26.6;68.1
49583;BME280;36329;48.816;44.624;2023-07-29T10:51:43;99766;;;26.3;68.9
49583;BME280;36329;48.816;44.624;2023-07-29T10:54:47;99761;;;26.3;71.7
49583;BME280;36329;48.816;44.624;2023-07-29T10:57:49;99758;;;25.7;75.1
49583;BME280;36329;48.816;44.624;2023-07-29T11:00:51;99763;;;25.5;76
49583;BME280;36329;48.816;44.624;2023-07-29T11:04:01;99767;;;25.4;77
49583;BME280;36329;48.816;44.624;2023-07-29T11:07:23;99786;;;25.3;76.3
49583;BME280;36329;48.816;44.624;2023-07-29T11:10:25;99780;;;25.2;79.2
49583;BME280;36329;48.816;44.624;2023-07-29T11:13:28;99773;;;25.1;81.6
49583;BME280;36329;48.816;44.624;2023-07-29T11:16:30;99771;;;25;83.1
49583;BME280;36329;48.816;44.624;2023-07-29T11:19:33;99774;;;24.6;86.4
49583;BME280;36329;48.816;44.624;2023-07-29T11:22:37;99768;;;24.8;84.8
49583;BME280;36329;48.816;44.624;2023-07-29T11:25:39;99772;;;25.2;79.6
49583;BME280;36329;48.816;44.624;2023-07-29T11:28:41;99767;;;25.2;81.1
49583;BME280;36329;48.816;44.624;2023-07-29T11:31:43;99778;;;25;83.4
49583;BME280;36329;48.816;44.624;2023-07-29T11:34:45;99767;;;24.8;85.4
49583;BME280;36329;48.816;44.624;2023-07-29T11:37:48;99776;;;24.8;86.5
49583;BME280;36329;48.816;44.624;2023-07-29T11:40:55;99777;;;24.9;81.3
49583;BME280;36329;48.816;44.624;2023-07-29T11:43:58;99792;;;25;86.4
49583;BME280;36329;48.816;44.624;2023-07-29T11:47:00;99809;;;24.5;92.7
49583;BME280;36329;48.816;44.624;2023-07-29T11:50:03;99797;;;24;99.4
49583;BME280;36329;48.816;44.624;2023-07-29T11:53:06;99802;;;23.9;99.6
49583;BME280;36329;48.816;44.624;2023-07-29T11:56:08;99797;;;24.1;97.3
49583;BME280;36329;48.816;44.624;2023-07-29T11:59:11;99791;;;24.1;98.7
49583;BME280;36329;48.816;44.624;2023-07-29T12:02:14;99795;;;24.1;97
49583;BME280;36329;48.816;44.624;2023-07-29T12:05:17;99787;;;24.2;96.6
49583;BME280;36329;48.816;44.624;2023-07-29T12:08:20;99789;;;24.5;95.1
49583;BME280;36329;48.816;44.624;2023-07-29T12:11:23;99797;;;24.4;92.1
49583;BME280;36329;48.816;44.624;2023-07-29T12:14:25;99800;;;24.1;88.7
49583;BME280;36329;48.816;44.624;2023-07-29T12:17:27;99802;;;24.2;91.4
49583;BME280;36329;48.816;44.624;2023-07-29T12:20:30;99800;;;24.5;93.1
49583;BME280;36329;48.816;44.624;2023-07-29T12:23:32;99786;;;24.2;89.7
49583;BME280;36329;48.816;44.624;2023-07-29T12:26:35;99788;;;24.4;92.4
49583;BME280;36329;48.816;44.624;2023-07-29T12:29:40;99787;;;24.3;86.8
49583;BME280;36329;48.816;44.624;2023-07-29T12:32:43;99797;;;24.4;85
49583;BME280;36329;48.816;44.624;2023-07-29T12:35:45;99802;;;24.5;78.3
49583;BME280;36329;48.816;44.624;2023-07-29T12:38:47;99807;;;24.6;82.3
49583;BME280;36329;48.816;44.624;2023-07-29T12:41:50;99808;;;24.5;82.5
49583;BME280;36329;48.816;44.624;2023-07-29T12:44:53;99814;;;24.8;86.1
49583;BME280;36329;48.816;44.624;2023-07-29T12:47:55;99809;;;24.9;85.6
49583;BME280;36329;48.816;44.624;2023-07-29T12:50:57;99793;;;24.8;83.7
49583;BME280;36329;48.816;44.624;2023-07-29T12:54:00;99802;;;24.7;85.3
49583;BME280;36329;48.816;44.624;2023-07-29T12:57:02;99807;;;24.8;86.8
49583;BME280;36329;48.816;44.624;2023-07-29T13:00:05;99811;;;24.7;87.4
49583;BME280;36329;48.816;44.624;2023-07-29T13:03:08;99805;;;24.6;90.9
49583;BME280;36329;48.816;44.624;2023-07-29T13:06:11;99814;;;24.5;90
49583;BME280;36329;48.816;44.624;2023-07-29T13:09:13;99823;;;24.3;90.5
49583;BME280;36329;48.816;44.624;2023-07-29T13:12:15;99822;;;24;96
49583;BME280;36329;48.816;44.624;2023-07-29T13:15:17;99820;;;23.8;97.3
49583;BME280;36329;48.816;44.624;2023-07-29T13:18:21;99823;;;23.9;95.1
49583;BME280;36329;48.816;44.624;2023-07-29T13:21:23;99827;;;23.8;99.3
49583;BME280;36329;48.816;44.624;2023-07-29T13:24:25;99823;;;23.8;95
49583;BME280;36329;48.816;44.624;2023-07-29T13:27:27;99836;;;24;93.5
49583;BME280;36329;48.816;44.624;2023-07-29T13:30:30;99834;;;24;95.1
49583;BME280;36329;48.816;44.624;2023-07-29T13:33:32;99845;;;23.9;95.2
49583;BME280;36329;48.816;44.624;2023-07-29T13:36:34;99855;;;24;91.3
49583;BME280;36329;48.816;44.624;2023-07-29T13:39:36;99835;;;24.2;90
49583;BME280;36329;48.816;44.624;2023-07-29T13:42:38;99839;;;24.5;87.2
49583;BME280;36329;48.816;44.624;2023-07-29T13:45:41;99843;;;24.4;85.1
49583;BME280;36329;48.816;44.624;2023-07-29T13:48:42;99840;;;24.3;85.3
49583;BME280;36329;48.816;44.624;2023-07-29T13:51:44;99841;;;24.5;87
49583;BME280;36329;48.816;44.624;2023-07-29T13:54:47;99841;;;24.6;86.7
49583;BME280;36329;48.816;44.624;2023-07-29T13:57:49;99869;;;24.8;86
49583;BME280;36329;48.816;44.624;2023-07-29T14:00:50;99845;;;24.5;83.5
49583;BME280;36329;48.816;44.624;2023-07-29T14:03:52;99842;;;24.3;84.4
49583;BME280;36329;48.816;44.624;2023-07-29T14:06:54;99844;;;24.2;84
49583;BME280;36329;48.816;44.624;2023-07-29T14:09:56;99861;;;24.2;85
49583;BME280;36329;48.816;44.624;2023-07-29T14:12:58;99857;;;24.2;84.2
49583;BME280;36329;48.816;44.624;2023-07-29T14:16:01;99862;;;24.1;80.1
49583;BME280;36329;48.816;44.624;2023-07-29T14:19:03;99864;;;24.1;80.2
49583;BME280;36329;48.816;44.624;2023-07-29T14:22:05;99864;;;24.1;80
49583;BME280;36329;48.816;44.624;2023-07-29T14:25:07;99866;;;23.9;80.3
49583;BME280;36329;48.816;44.624;2023-07-29T14:28:09;99870;;;23.9;82.5
49583;BME280;36329;48.816;44.624;2023-07-29T14:31:11;99874;;;24;80.3
49583;BME280;36329;48.816;44.624;2023-07-29T14:34:13;99873;;;24;80.4
49583;BME280;36329;48.816;44.624;2023-07-29T14:37:15;99864;;;24;80.1
49583;BME280;36329;48.816;44.624;2023-07-29T14:40:17;99879;;;24;82
49583;BME280;36329;48.816;44.624;2023-07-29T14:43:19;99887;;;24;81.2
49583;BME280;36329;48.816;44.624;2023-07-29T14:46:21;99888;;;23.8;79.7
49583;BME280;36329;48.816;44.624;2023-07-29T14:49:24;99880;;;23.8;78.8
49583;BME280;36329;48.816;44.624;2023-07-29T14:52:26;99889;;;23.7;79
49583;BME280;36329;48.816;44.624;2023-07-29T14:55:28;99890;;;23.7;78.9
49583;BME280;36329;48.816;44.624;2023-07-29T14:58:30;99897;;;23.7;79
49583;BME280;36329;48.816;44.624;2023-07-29T15:01:32;99898;;;23.7;79
49583;BME280;36329;48.816;44.624;2023-07-29T15:04:34;99896;;;23.6;79.1
49583;BME280;36329;48.816;44.624;2023-07-29T15:07:36;99904;;;23.7;79.4
49583;BME280;36329;48.816;44.624;2023-07-29T15:10:38;99897;;;23.6;79.5
49583;BME280;36329;48.816;44.624;2023-07-29T15:13:40;99902;;;23.7;78.9
49583;BME280;36329;48.816;44.624;2023-07-29T15:16:42;99919;;;23.6;78.8
49583;BME280;36329;48.816;44.624;2023-07-29T15:19:44;99917;;;23.6;78.9
49583;BME280;36329;48.816;44.624;2023-07-29T15:22:46;99915;;;23.6;78.5
49583;BME280;36329;48.816;44.624;2023-07-29T15:25:48;99930;;;23.5;78.9
49583;BME280;36329;48.816;44.624;2023-07-29T15:28:50;99929;;;23.3;79.3
49583;BME280;36329;48.816;44.624;2023-07-29T15:31:52;99922;;;23.5;79.8
49583;BME280;36329;48.816;44.624;2023-07-29T15:34:54;99924;;;23.6;79.3
49583;BME280;36329;48.816;44.624;2023-07-29T15:37:56;99923;;;23.3;79.7
49583;BME280;36329;48.816;44.624;2023-07-29T15:40:58;99934;;;23.3;80.3
49583;BME280;36329;48.816;44.624;2023-07-29T15:44:01;99935;;;23.5;78.6
49583;BME280;36329;48.816;44.624;2023-07-29T15:47:03;99943;;;23.4;80.1
49583;BME280;36329;48.816;44.624;2023-07-29T15:50:06;99953;;;23.3;80.4
49583;BME280;36329;48.816;44.624;2023-07-29T15:53:08;99956;;;23.2;81.2
49583;BME280;36329;48.816;44.624;2023-07-29T15:56:10;99970;;;23.4;80.2
49583;BME280;36329;48.816;44.624;2023-07-29T15:59:12;99974;;;23.3;80
49583;BME280;36329;48.816;44.624;2023-07-29T16:02:14;99959;;;23.4;78.7
49583;BME280;36329;48.816;44.624;2023-07-29T16:05:16;99974;;;23.4;79.4
49583;BME280;36329;48.816;44.624;2023-07-29T16:08:18;99987;;;23.3;79.2
49583;BME280;36329;48.816;44.624;2023-07-29T16:11:20;99980;;;23.4;78.1
49583;BME280;36329;48.816;44.624;2023-07-29T16:14:21;99977;;;23.4;78.3
49583;BME280;36329;48.816;44.624;2023-07-29T16:17:24;99993;;;23.4;78.3
49583;BME280;36329;48.816;44.624;2023-07-29T16:20:26;99997;;;23.3;77.5
49583;BME280;36329;48.816;44.624;2023-07-29T16:23:28;99977;;;23.2;78.4
49583;BME280;36329;48.816;44.624;2023-07-29T16:26:30;99988;;;23.3;77.6
49583;BME280;36329;48.816;44.624;2023-07-29T16:29:32;99991;;;22.9;78.9
49583;BME280;36329;48.816;44.624;2023-07-29T16:32:34;100000;;;23;79.5
49583;BME280;36329;48.816;44.624;2023-07-29T16:35:36;99996;;;22.9;78.5
49583;BME280;36329;48.816;44.624;2023-07-29T16:38:38;100015;;;23;78.1
49583;BME280;36329;48.816;44.624;2023-07-29T16:41:40;100015;;;23.1;77.8
49583;BME280;36329;48.816;44.624;2023-07-29T16:44:42;100024;;;23.1;76.5
49583;BME280;36329;48.816;44.624;2023-07-29T16:47:44;100022;;;23.1;77.2
49583;BME280;36329;48.816;44.624;2023-07-29T16:50:46;100028;;;23.1;76.4
49583;BME280;36329;48.816;44.624;2023-07-29T16:53:48;100032;;;23.1;77
49583;BME280;36329;48.816;44.624;2023-07-29T16:56:50;100036;;;22.9;77.8
49583;BME280;36329;48.816;44.624;2023-07-29T16:59:53;100034;;;23.4;75.3
49583;BME280;36329;48.816;44.624;2023-07-29T17:02:55;100046;;;23.3;75.5
49583;BME280;36329;48.816;44.624;2023-07-29T17:05:57;100045;;;23.6;74
49583;BME280;36329;48.816;44.624;2023-07-29T17:08:59;100046;;;23.6;73
49583;BME280;36329;48.816;44.624;2023-07-29T17:12:01;100053;;;23.4;73.7